Lancaster, PA

10:38 AM EST on November 15, 2019 (GMT -0500)
Lancaster

Weather History for KLNS - October, 2019

Change the Weather History Date:

Tuesday, October 22, 2019

  Actual Average Record
Temperature  
Mean Temperature 60 °F -  
Max Temperature 63 °F 63 °F 82 °F (1979)
Min Temperature 57 °F 39 °F 29 °F (1983)
Degree Days  
Heating Degree Days 5    
Growing Degree Days 10 (Base 50)    
Moisture  
Dew Point 57 °F    
Average Humidity 90    
Maximum Humidity 93    
Minimum Humidity 83    
Precipitation  
Precipitation 0.65 in - - ()
Sea Level Pressure  
Sea Level Pressure 29.91 in    
Wind  
Wind Speed 8 mph (SSE)    
Max Wind Speed 12 mph    
Max Gust Speed -    
Visibility 5 miles    
Events Rain    
Averages and records for this station are not official NWS values.
T = Trace of Precipitation, MM = Missing Value Source: NWS Daily Summary

Daily Weather History Graph

Daily Weather History Graph

Search for Another Location

Airport or City:

Astronomy

Oct. 22, 2019 Rise Set
Actual Time 7:23 AM EDT 6:15 PM EDT
Civil Twilight 6:55 AM EDT 6:43 PM EDT
Nautical Twilight 6:23 AM EDT 7:14 PM EDT
Astronomical Twilight 5:52 AM EDT 7:46 PM EDT
Moon 12:30 AM EDT (10/22) 3:23 PM EDT (10/22)
Length of Visible Light 11h 47m
Length of Day
10h 52m
Last Quarter, 37% of the Moon is Illuminated
Oct 22
Last Quarter
Oct 27
New
Nov 4
First Quarter
Nov 12
Full
Nov 19
Last Quarter

Hourly Weather History & Observations

Time (EDT) Temp. Dew Point Humidity Pressure Visibility Wind Dir Wind Speed Gust Speed Precip Events Conditions
12:00 AM 57.0 °F 52.0 °F 83% 30.08 in 10.0 mi SE 8.1 mph - N/A   Mostly Cloudy
12:35 AM 57.0 °F 53.1 °F 87% 30.08 in 10.0 mi SSE 6.9 mph - N/A   Overcast
12:53 AM 57.9 °F 53.1 °F 84% 30.09 in 10.0 mi South 6.9 mph - N/A   Overcast
1:53 AM 57.9 °F 54.0 °F 87% 30.09 in 10.0 mi SSE 5.8 mph - N/A   Overcast
2:53 AM 57.9 °F 54.0 °F 87% 30.07 in 6.0 mi SE 8.1 mph - N/A   Overcast
3:53 AM 57.0 °F 54.0 °F 89% 30.03 in 4.0 mi ESE 6.9 mph - N/A   Overcast
4:14 AM 57.0 °F 54.0 °F 89% 30.03 in 2.5 mi ESE 8.1 mph - N/A   Overcast
4:35 AM 57.0 °F 55.0 °F 93% 30.03 in 3.0 mi SE 8.1 mph - N/A   Overcast
4:53 AM 57.0 °F 55.0 °F 93% 30.01 in 4.0 mi SE 8.1 mph - N/A   Overcast
5:16 AM 57.9 °F 55.0 °F 90% 30.02 in 7.0 mi ESE 6.9 mph - N/A   Overcast
5:46 AM 57.9 °F 55.0 °F 90% 30.03 in 2.5 mi SE 8.1 mph - N/A   Overcast
5:53 AM 57.0 °F 55.0 °F 93% 30.00 in 3.0 mi ESE 9.2 mph - N/A   Overcast
6:37 AM 57.9 °F 55.0 °F 90% 30.01 in 6.0 mi ESE 5.8 mph - N/A   Overcast
6:53 AM 57.9 °F 55.0 °F 90% 30.01 in 5.0 mi ESE 6.9 mph - N/A   Overcast
7:40 AM 57.0 °F 55.0 °F 93% 29.99 in 2.0 mi ESE 8.1 mph - N/A   Overcast
7:45 AM 57.0 °F 55.0 °F 93% 29.99 in 1.8 mi ESE 9.2 mph - N/A   Overcast
7:53 AM 57.0 °F 55.0 °F 93% 29.99 in 1.2 mi ESE 8.1 mph - N/A   Overcast
8:14 AM 57.9 °F 55.0 °F 90% 29.99 in 2.5 mi ESE 8.1 mph - N/A   Overcast
8:22 AM 57.9 °F 55.0 °F 90% 30.00 in 4.0 mi SE 8.1 mph - N/A   Overcast
8:53 AM 57.9 °F 55.0 °F 90% 30.01 in 2.5 mi ESE 6.9 mph - N/A   Overcast
9:03 AM 57.9 °F 55.0 °F 90% 30.02 in 3.0 mi SE 5.8 mph - N/A   Overcast
9:17 AM 57.9 °F 55.0 °F 90% 30.00 in 1.8 mi SE 9.2 mph - N/A   Overcast
9:53 AM 57.9 °F 55.0 °F 90% 30.00 in 3.0 mi SE 10.4 mph - N/A   Overcast
10:27 AM 59.0 °F 55.9 °F 90% 29.97 in 8.0 mi SE 11.5 mph - 0.00 in   Overcast
11:53 AM 61.0 °F 57.0 °F 87% 29.95 in 10.0 mi SE 9.2 mph - N/A   Overcast
12:53 PM 62.1 °F 57.9 °F 86% 29.89 in 5.0 mi ESE 11.5 mph - N/A   Overcast
1:13 PM 62.1 °F 57.9 °F 86% 29.88 in 2.0 mi SE 10.4 mph - N/A   Overcast
1:20 PM 62.1 °F 57.9 °F 86% 29.88 in 1.8 mi SE 10.4 mph - N/A   Overcast
1:29 PM 62.1 °F 57.9 °F 86% 29.87 in 2.5 mi SE 8.1 mph - N/A   Overcast
1:41 PM 62.1 °F 59.0 °F 90% 29.87 in 1.2 mi SE 9.2 mph - N/A   Overcast
1:53 PM 62.1 °F 59.0 °F 90% 29.85 in 1.0 mi SE 11.5 mph - 0.01 in Rain Light Rain
2:24 PM 62.1 °F 59.0 °F 90% 29.83 in 2.0 mi ESE 10.4 mph - 0.01 in Rain Light Rain
2:39 PM 62.1 °F 59.0 °F 90% 29.82 in 1.5 mi ESE 9.2 mph - 0.01 in   Overcast
2:53 PM 62.1 °F 59.0 °F 90% 29.82 in 2.0 mi SE 10.4 mph - 0.01 in Rain Light Rain
3:06 PM 63.0 °F 60.1 °F 90% 29.82 in 3.0 mi SE 9.2 mph - 0.00 in Rain Light Rain
3:19 PM 63.0 °F 60.1 °F 90% 29.82 in 3.0 mi SE 10.4 mph - 0.02 in Rain Rain
3:53 PM 63.0 °F 60.1 °F 90% 29.81 in 5.0 mi SE 10.4 mph - 0.08 in Rain Rain
4:29 PM 63.0 °F 61.0 °F 93% 29.82 in 3.0 mi SSW 5.8 mph - 0.11 in Rain Heavy Rain
4:35 PM 63.0 °F 61.0 °F 93% 29.82 in 1.8 mi SW 5.8 mph - 0.15 in Rain Heavy Rain
4:53 PM 63.0 °F 61.0 °F 93% 29.82 in 1.5 mi SSW 5.8 mph - 0.25 in Rain Rain
5:10 PM 63.0 °F 61.0 °F 93% 29.82 in 2.0 mi West 6.9 mph - 0.04 in Rain Rain
5:18 PM 63.0 °F 61.0 °F 93% 29.82 in 1.0 mi West 8.1 mph - 0.09 in Rain Heavy Rain
5:45 PM 62.1 °F 59.0 °F 90% 29.82 in 2.5 mi West 10.4 mph - 0.19 in Rain Rain
5:53 PM 62.1 °F 59.0 °F 90% 29.83 in 2.5 mi West 9.2 mph - 0.21 in Rain Rain
6:04 PM 62.1 °F 59.0 °F 90% 29.83 in 4.0 mi West 11.5 mph - 0.01 in Rain Light Rain
6:27 PM 61.0 °F 57.9 °F 90% 29.82 in 4.0 mi West 10.4 mph - 0.05 in Rain Light Rain
6:53 PM 61.0 °F 57.9 °F 90% 29.82 in 4.0 mi Calm Calm - 0.07 in Rain Light Rain
7:53 PM 60.1 °F 57.9 °F 93% 29.81 in 7.0 mi ESE 5.8 mph - 0.02 in   Overcast
8:40 PM 60.1 °F 57.9 °F 93% 29.82 in 8.0 mi WNW 4.6 mph - 0.00 in   Overcast
8:53 PM 60.1 °F 57.9 °F 93% 29.83 in 7.0 mi WNW 6.9 mph - 0.00 in   Overcast
9:00 PM 60.1 °F 57.9 °F 93% 29.83 in 8.0 mi WNW 8.1 mph - N/A   Overcast
9:07 PM 60.1 °F 57.9 °F 93% 29.83 in 8.0 mi West 8.1 mph - N/A   Overcast
9:17 PM 60.1 °F 57.9 °F 93% 29.83 in 8.0 mi West 8.1 mph - N/A   Overcast
9:53 PM 60.1 °F 57.0 °F 90% 29.84 in 10.0 mi West 9.2 mph - N/A   Overcast
10:09 PM 60.1 °F 57.0 °F 90% 29.84 in 10.0 mi West 8.1 mph - N/A   Overcast
10:53 PM 59.0 °F 55.9 °F 90% 29.84 in 9.0 mi WNW 8.1 mph - N/A   Overcast
11:13 PM 59.0 °F 55.0 °F 87% 29.84 in 9.0 mi West 6.9 mph - N/A   Overcast
11:53 PM 57.0 °F 54.0 °F 89% 29.84 in 7.0 mi WNW 6.9 mph - N/A   Scattered Clouds